createdAt,value
2017-05-25T00:00:25.058Z,0
2017-05-25T00:01:25.051Z,0
2017-05-25T00:02:24.738Z,0
2017-05-25T00:03:24.737Z,0
2017-05-25T00:04:24.797Z,0
2017-05-25T00:05:24.730Z,0
2017-05-25T00:06:25.037Z,0
2017-05-25T00:07:25.029Z,0
2017-05-25T00:08:25.027Z,0
2017-05-25T00:09:24.725Z,0
2017-05-25T00:10:25.017Z,0
2017-05-25T00:11:24.710Z,0
2017-05-25T00:12:24.400Z,0
2017-05-25T00:13:24.404Z,0
2017-05-25T00:14:24.707Z,0
2017-05-25T00:15:25.000Z,0
2017-05-25T00:16:24.693Z,0
2017-05-25T00:17:25.002Z,0
2017-05-25T00:18:24.993Z,0
2017-05-25T00:19:24.994Z,0
2017-05-25T00:20:24.686Z,0
2017-05-25T00:21:24.984Z,0
2017-05-25T00:22:24.672Z,0
2017-05-25T00:23:24.972Z,0
2017-05-25T00:24:24.676Z,0
2017-05-25T00:25:24.663Z,0
2017-05-25T00:26:24.662Z,0
2017-05-25T00:27:24.967Z,0
2017-05-25T00:28:24.353Z,0
2017-05-25T00:29:24.969Z,0
2017-05-25T00:30:24.955Z,0
2017-05-25T00:31:24.953Z,0
2017-05-25T00:32:24.648Z,0
2017-05-25T00:33:24.946Z,0
2017-05-25T00:34:24.949Z,0
2017-05-25T00:35:24.944Z,0
2017-05-25T00:36:24.950Z,0
2017-05-25T00:37:24.935Z,0
2017-05-25T00:38:24.943Z,0
2017-05-25T00:39:24.632Z,0
2017-05-25T00:40:24.930Z,0
2017-05-25T00:41:24.617Z,0
2017-05-25T00:42:24.622Z,0
2017-05-25T00:43:24.919Z,0
2017-05-25T00:44:24.920Z,0
2017-05-25T00:45:24.964Z,0
2017-05-25T00:46:24.907Z,0
2017-05-25T00:47:24.905Z,0
2017-05-25T00:48:24.907Z,0
2017-05-25T00:49:24.902Z,0
2017-05-25T00:50:24.588Z,0
2017-05-25T00:51:24.279Z,0
2017-05-25T00:52:24.888Z,0
2017-05-25T00:53:24.896Z,0
2017-05-25T00:54:24.881Z,0
2017-05-25T00:55:24.895Z,0
2017-05-25T00:56:24.572Z,0
2017-05-25T00:57:24.873Z,0
2017-05-25T00:58:24.870Z,0
2017-05-25T00:59:24.876Z,0
2017-05-25T01:00:24.866Z,0
2017-05-25T01:01:24.862Z,0
2017-05-25T01:02:24.552Z,0
2017-05-25T01:03:24.860Z,0
2017-05-25T01:04:24.244Z,0
2017-05-25T01:05:24.539Z,0
2017-05-25T01:06:24.537Z,0
2017-05-25T01:07:24.844Z,0
2017-05-25T01:08:24.839Z,0
2017-05-25T01:09:24.540Z,0
2017-05-25T01:10:24.221Z,0
2017-05-25T01:11:23.913Z,0
2017-05-25T01:12:24.823Z,0
2017-05-25T01:13:24.525Z,0
2017-05-25T01:14:24.517Z,0
2017-05-25T01:15:24.213Z,0
2017-05-25T01:16:24.510Z,0
2017-05-25T01:17:24.505Z,0
2017-05-25T01:18:24.812Z,0
2017-05-25T01:19:24.813Z,0
2017-05-25T01:20:24.495Z,0
2017-05-25T01:21:24.797Z,0
2017-05-25T01:22:24.183Z,0
2017-05-25T01:23:24.494Z,0
2017-05-25T01:24:24.489Z,0
2017-05-25T01:25:24.786Z,0
2017-05-25T01:26:24.780Z,0
2017-05-25T01:27:24.476Z,0
2017-05-25T01:28:24.783Z,0
2017-05-25T01:29:24.479Z,0
2017-05-25T01:30:24.486Z,0
2017-05-25T01:31:24.770Z,0
2017-05-25T01:32:24.758Z,0
2017-05-25T01:33:24.450Z,0
2017-05-25T01:34:24.452Z,0
2017-05-25T01:35:24.759Z,0
2017-05-25T01:36:24.454Z,0
2017-05-25T01:37:24.750Z,0
2017-05-25T01:38:24.752Z,0
2017-05-25T01:39:24.437Z,0
2017-05-25T01:40:24.738Z,0
2017-05-25T01:41:24.429Z,0
2017-05-25T01:42:24.734Z,0
2017-05-25T01:43:24.118Z,0
2017-05-25T01:44:24.734Z,0
2017-05-25T01:45:24.723Z,0
2017-05-25T01:46:24.722Z,0
2017-05-25T01:47:24.715Z,0
2017-05-25T01:48:24.715Z,0
2017-05-25T01:49:24.710Z,0
2017-05-25T01:50:24.708Z,0
2017-05-25T01:51:23.783Z,0
2017-05-25T01:52:24.703Z,0
2017-05-25T01:53:24.397Z,0
2017-05-25T01:54:24.402Z,0
2017-05-25T01:55:24.691Z,0
2017-05-25T01:56:24.689Z,0
2017-05-25T01:57:24.685Z,0
2017-05-25T01:58:24.380Z,0
2017-05-25T01:59:24.067Z,0
2017-05-25T02:00:24.067Z,0
2017-05-25T02:01:24.674Z,0
2017-05-25T02:02:24.673Z,0
2017-05-25T02:03:24.369Z,0
2017-05-25T02:04:24.671Z,0
2017-05-25T02:05:24.369Z,0
2017-05-25T02:06:24.354Z,0
2017-05-25T02:07:24.652Z,0
2017-05-25T02:08:24.652Z,0
2017-05-25T02:09:24.650Z,0
2017-05-25T02:10:24.341Z,0
2017-05-25T02:11:24.336Z,0
2017-05-25T02:12:24.345Z,0
2017-05-25T02:13:24.335Z,0
2017-05-25T02:14:24.331Z,0
2017-05-25T02:15:24.628Z,0
2017-05-25T02:16:24.318Z,0
2017-05-25T02:17:24.623Z,0
2017-05-25T02:18:24.623Z,0
2017-05-25T02:19:24.619Z,0
2017-05-25T02:20:24.333Z,0
2017-05-25T02:21:24.615Z,0
2017-05-25T02:22:24.608Z,0
2017-05-25T02:23:24.606Z,0
2017-05-25T02:24:24.611Z,0
2017-05-25T02:25:24.594Z,0
2017-05-25T02:26:24.289Z,0
2017-05-25T02:27:24.286Z,0
2017-05-25T02:28:24.591Z,0
2017-05-25T02:29:23.975Z,0
2017-05-25T02:30:24.584Z,0
2017-05-25T02:31:24.273Z,0
2017-05-25T02:32:24.274Z,0
2017-05-25T02:33:24.267Z,0
2017-05-25T02:34:24.574Z,0
2017-05-25T02:35:24.259Z,0
2017-05-25T02:36:23.645Z,0
2017-05-25T02:37:24.254Z,0
2017-05-25T02:38:24.254Z,0
2017-05-25T02:39:24.556Z,0
2017-05-25T02:40:24.594Z,0
2017-05-25T02:41:23.931Z,0
2017-05-25T02:42:24.539Z,0
2017-05-25T02:43:24.539Z,0
2017-05-25T02:44:24.543Z,0
2017-05-25T02:45:24.230Z,0
2017-05-25T02:46:24.533Z,0
2017-05-25T02:47:24.586Z,0
2017-05-25T02:48:24.528Z,0
2017-05-25T02:49:23.915Z,0
2017-05-25T02:50:23.598Z,0
2017-05-25T02:51:24.206Z,0
2017-05-25T02:52:24.510Z,0
2017-05-25T02:53:24.205Z,0
2017-05-25T02:54:24.502Z,0
2017-05-25T02:55:24.198Z,0
2017-05-25T02:56:24.502Z,0
2017-05-25T02:57:24.188Z,0
2017-05-25T02:58:24.498Z,0
2017-05-25T02:59:24.185Z,0
2017-05-25T03:00:24.184Z,0
2017-05-25T03:01:24.178Z,0
2017-05-25T03:02:23.869Z,0
2017-05-25T03:03:24.174Z,0
2017-05-25T03:04:23.858Z,0
2017-05-25T03:05:24.162Z,0
2017-05-25T03:06:23.547Z,0
2017-05-25T03:07:24.159Z,0
2017-05-25T03:08:24.462Z,0
2017-05-25T03:09:24.459Z,0
2017-05-25T03:10:24.453Z,0
2017-05-25T03:11:23.598Z,0
2017-05-25T03:12:24.448Z,0
2017-05-25T03:13:24.500Z,0
2017-05-25T03:14:24.137Z,0
2017-05-25T03:15:24.127Z,0
2017-05-25T03:16:24.433Z,0
2017-05-25T03:17:24.432Z,0
2017-05-25T03:18:24.125Z,0
2017-05-25T03:19:24.425Z,0
2017-05-25T03:20:24.419Z,0
2017-05-25T03:21:24.116Z,0
2017-05-25T03:22:23.799Z,0
2017-05-25T03:23:24.417Z,0
2017-05-25T03:24:23.807Z,0
2017-05-25T03:25:24.404Z,0
2017-05-25T03:26:24.097Z,0
2017-05-25T03:27:24.092Z,0
2017-05-25T03:28:23.786Z,0
2017-05-25T03:29:23.778Z,0
2017-05-25T03:30:24.388Z,0
2017-05-25T03:31:24.386Z,0
2017-05-25T03:32:24.379Z,0
2017-05-25T03:33:23.459Z,0
2017-05-25T03:34:24.069Z,0
2017-05-25T03:35:24.064Z,0
2017-05-25T03:36:24.381Z,0
2017-05-25T03:37:24.063Z,0
2017-05-25T03:38:24.055Z,0
2017-05-25T03:39:23.757Z,0
2017-05-25T03:40:24.359Z,0
2017-05-25T03:41:24.046Z,0
2017-05-25T03:42:24.353Z,0
2017-05-25T03:43:24.350Z,5
2017-05-25T03:44:24.346Z,5
2017-05-25T03:45:24.344Z,5
2017-05-25T03:46:23.719Z,5
2017-05-25T03:47:24.336Z,5
2017-05-25T03:48:24.334Z,5
2017-05-25T03:49:24.019Z,5
2017-05-25T03:50:23.707Z,5
2017-05-25T03:51:24.320Z,5
2017-05-25T03:52:24.011Z,5
2017-05-25T03:53:24.010Z,5
2017-05-25T03:54:24.311Z,5
2017-05-25T03:55:24.305Z,10
2017-05-25T03:56:24.003Z,10
2017-05-25T03:57:24.297Z,10
2017-05-25T03:58:24.296Z,10
2017-05-25T03:59:24.304Z,10
2017-05-25T04:00:23.369Z,10
2017-05-25T04:01:24.282Z,10
2017-05-25T04:02:24.292Z,15
2017-05-25T04:03:24.280Z,15
2017-05-25T04:04:23.360Z,15
2017-05-25T04:05:24.276Z,15
2017-05-25T04:06:23.962Z,15
2017-05-25T04:07:24.264Z,15
2017-05-25T04:08:24.311Z,20
2017-05-25T04:09:23.958Z,20
2017-05-25T04:10:24.252Z,20
2017-05-25T04:11:24.256Z,20
2017-05-25T04:12:24.246Z,20
2017-05-25T04:13:23.939Z,25
2017-05-25T04:14:24.247Z,25
2017-05-25T04:15:24.241Z,25
2017-05-25T04:16:23.623Z,25
2017-05-25T04:17:23.932Z,25
2017-05-25T04:18:23.315Z,30
2017-05-25T04:19:24.234Z,30
2017-05-25T04:20:23.919Z,30
2017-05-25T04:21:24.223Z,35
2017-05-25T04:22:23.608Z,35
2017-05-25T04:23:24.226Z,35
2017-05-25T04:24:24.234Z,35
2017-05-25T04:25:24.208Z,30
2017-05-25T04:26:23.595Z,30
2017-05-25T04:27:23.896Z,35
2017-05-25T04:28:23.894Z,35
2017-05-25T04:29:23.890Z,35
2017-05-25T04:30:23.896Z,40
2017-05-25T04:31:24.195Z,45
2017-05-25T04:32:23.885Z,50
2017-05-25T04:33:24.185Z,50
2017-05-25T04:34:24.180Z,45
2017-05-25T04:35:23.562Z,45
2017-05-25T04:36:24.175Z,45
2017-05-25T04:37:23.869Z,45
2017-05-25T04:38:24.174Z,45
2017-05-25T04:39:24.187Z,40
2017-05-25T04:40:23.855Z,45
2017-05-25T04:41:23.862Z,50
2017-05-25T04:42:23.849Z,50
2017-05-25T04:43:23.850Z,55
2017-05-25T04:44:24.150Z,60
2017-05-25T04:45:24.150Z,60
2017-05-25T04:46:23.540Z,60
2017-05-25T04:47:23.835Z,60
2017-05-25T04:48:23.836Z,60
2017-05-25T04:49:23.836Z,55
2017-05-25T04:50:23.519Z,55
2017-05-25T04:51:24.128Z,55
2017-05-25T04:52:24.127Z,55
2017-05-25T04:53:24.128Z,60
2017-05-25T04:54:23.821Z,60
2017-05-25T04:55:23.808Z,60
2017-05-25T04:56:23.813Z,65
2017-05-25T04:57:24.109Z,65
2017-05-25T04:58:23.804Z,70
2017-05-25T04:59:23.553Z,70
2017-05-25T05:00:23.798Z,75
2017-05-25T05:01:24.164Z,75
2017-05-25T05:02:23.790Z,80
2017-05-25T05:03:23.793Z,80
2017-05-25T05:04:24.163Z,90
2017-05-25T05:05:24.091Z,85
2017-05-25T05:06:22.860Z,85
2017-05-25T05:07:23.473Z,85
2017-05-25T05:08:24.085Z,85
2017-05-25T05:09:24.078Z,135
2017-05-25T05:10:24.071Z,160
2017-05-25T05:11:23.766Z,150
2017-05-25T05:12:22.847Z,105
2017-05-25T05:13:23.761Z,95
2017-05-25T05:14:23.459Z,90
2017-05-25T05:15:24.059Z,90
2017-05-25T05:16:23.758Z,85
2017-05-25T05:17:24.057Z,85
2017-05-25T05:18:24.116Z,80
2017-05-25T05:19:24.054Z,90
2017-05-25T05:20:23.747Z,110
2017-05-25T05:21:23.753Z,90
2017-05-25T05:22:23.438Z,90
2017-05-25T05:23:24.045Z,85
2017-05-25T05:24:24.049Z,80
2017-05-25T05:25:23.424Z,80
2017-05-25T05:26:24.035Z,75
2017-05-25T05:27:24.037Z,70
2017-05-25T05:28:23.727Z,60
2017-05-25T05:29:23.426Z,55
2017-05-25T05:30:23.720Z,50
2017-05-25T05:31:24.027Z,55
2017-05-25T05:32:24.020Z,55
2017-05-25T05:33:23.099Z,55
2017-05-25T05:34:23.715Z,50
2017-05-25T05:35:23.762Z,50
2017-05-25T05:36:23.712Z,55
2017-05-25T05:37:23.701Z,60
2017-05-25T05:38:23.705Z,65
2017-05-25T05:39:23.401Z,65
2017-05-25T05:40:24.000Z,65
2017-05-25T05:41:24.004Z,65
2017-05-25T05:42:23.692Z,70
2017-05-25T05:43:23.694Z,75
2017-05-25T05:44:23.706Z,80
2017-05-25T05:45:23.987Z,85
2017-05-25T05:46:23.679Z,95
2017-05-25T05:47:23.992Z,100
2017-05-25T05:48:23.675Z,170
2017-05-25T05:49:23.677Z,155
2017-05-25T05:50:23.973Z,195
2017-05-25T05:51:23.666Z,150
2017-05-25T05:52:23.666Z,105
2017-05-25T05:53:23.668Z,95
2017-05-25T05:54:23.663Z,90
2017-05-25T05:55:23.967Z,85
2017-05-25T05:56:23.661Z,100
2017-05-25T05:57:23.659Z,80
2017-05-25T05:58:23.650Z,75
2017-05-25T05:59:23.651Z,70
2017-05-25T06:00:23.341Z,70
2017-05-25T06:01:23.643Z,65
2017-05-25T06:02:23.948Z,65
2017-05-25T06:03:23.636Z,65
2017-05-25T06:04:23.641Z,65
2017-05-25T06:05:23.639Z,70
2017-05-25T06:06:23.633Z,70
2017-05-25T06:07:23.630Z,110
2017-05-25T06:08:23.642Z,90
2017-05-25T06:09:23.938Z,100
2017-05-25T06:10:23.627Z,160
2017-05-25T06:11:23.929Z,110
2017-05-25T06:12:23.010Z,115
2017-05-25T06:13:23.620Z,120
2017-05-25T06:14:23.930Z,125
2017-05-25T06:15:23.613Z,155
2017-05-25T06:16:23.612Z,120
2017-05-25T06:17:23.610Z,120
2017-05-25T06:18:23.003Z,125
2017-05-25T06:19:23.911Z,125
2017-05-25T06:20:23.903Z,120
2017-05-25T06:21:23.599Z,110
2017-05-25T06:22:22.990Z,105
2017-05-25T06:23:23.610Z,95
2017-05-25T06:24:23.289Z,95
2017-05-25T06:25:22.981Z,100
2017-05-25T06:26:22.670Z,110
2017-05-25T06:27:23.887Z,115
2017-05-25T06:28:23.585Z,165
2017-05-25T06:29:23.893Z,130
2017-05-25T06:30:23.587Z,130
2017-05-25T06:31:23.271Z,125
2017-05-25T06:32:23.278Z,125
2017-05-25T06:33:23.579Z,120
2017-05-25T06:34:23.264Z,115
2017-05-25T06:35:22.958Z,110
2017-05-25T06:36:23.571Z,115
2017-05-25T06:37:23.618Z,125
2017-05-25T06:38:23.864Z,125
2017-05-25T06:39:23.568Z,130
2017-05-25T06:40:23.559Z,140
2017-05-25T06:41:22.942Z,175
2017-05-25T06:42:23.558Z,155
2017-05-25T06:43:23.555Z,150
2017-05-25T06:44:23.556Z,140
2017-05-25T06:45:23.239Z,155
2017-05-25T06:46:23.552Z,165
2017-05-25T06:47:23.545Z,300
2017-05-25T06:48:23.539Z,415
2017-05-25T06:49:23.540Z,285
2017-05-25T06:50:23.537Z,200
2017-05-25T06:51:23.536Z,190
2017-05-25T06:52:22.974Z,175
2017-05-25T06:53:23.230Z,165
2017-05-25T06:54:23.224Z,350
2017-05-25T06:55:23.847Z,395
2017-05-25T06:56:22.916Z,310
2017-05-25T06:57:23.524Z,380
2017-05-25T06:58:23.525Z,375
2017-05-25T06:59:23.827Z,350
2017-05-25T07:00:23.523Z,285
2017-05-25T07:01:23.581Z,325
2017-05-25T07:02:23.513Z,265
2017-05-25T07:03:23.509Z,320
2017-05-25T07:04:23.208Z,315
2017-05-25T07:05:22.902Z,310
2017-05-25T07:06:23.202Z,300
2017-05-25T07:07:23.506Z,290
2017-05-25T07:08:22.925Z,275
2017-05-25T07:09:23.504Z,265
2017-05-25T07:10:23.194Z,260
2017-05-25T07:11:23.500Z,260
2017-05-25T07:12:23.190Z,270
2017-05-25T07:13:22.888Z,270
2017-05-25T07:14:23.498Z,270
2017-05-25T07:15:23.492Z,270
2017-05-25T07:16:23.184Z,260
2017-05-25T07:17:23.800Z,260
2017-05-25T07:18:23.182Z,255
2017-05-25T07:19:23.791Z,255
2017-05-25T07:20:23.491Z,255
2017-05-25T07:21:23.795Z,255
2017-05-25T07:22:23.792Z,255
2017-05-25T07:23:23.791Z,255
2017-05-25T07:24:23.791Z,255
2017-05-25T07:25:23.230Z,255
2017-05-25T07:26:23.477Z,255
2017-05-25T07:27:23.170Z,255
2017-05-25T07:28:23.480Z,255
2017-05-25T07:29:23.793Z,250
2017-05-25T07:30:23.784Z,255
2017-05-25T07:31:23.172Z,250
2017-05-25T07:32:23.778Z,250
2017-05-25T07:33:22.860Z,245
2017-05-25T07:34:23.784Z,245
2017-05-25T07:35:23.163Z,245
2017-05-25T07:36:23.236Z,245
2017-05-25T07:37:23.779Z,240
2017-05-25T07:38:23.471Z,245
2017-05-25T07:39:23.775Z,240
2017-05-25T07:40:23.464Z,235
2017-05-25T07:41:23.478Z,235
2017-05-25T07:42:22.859Z,230
2017-05-25T07:43:23.773Z,230
2017-05-25T07:44:23.466Z,220
2017-05-25T07:45:23.467Z,225
2017-05-25T07:46:23.162Z,220
2017-05-25T07:47:23.466Z,215
2017-05-25T07:48:23.469Z,210
2017-05-25T07:49:23.464Z,210
2017-05-25T07:50:23.454Z,210
2017-05-25T07:51:23.454Z,210
2017-05-25T07:52:23.458Z,205
2017-05-25T07:53:23.767Z,210
2017-05-25T07:54:23.149Z,215
2017-05-25T07:55:23.760Z,205
2017-05-25T07:56:23.149Z,205
2017-05-25T07:57:23.461Z,205
2017-05-25T07:58:23.454Z,210
2017-05-25T07:59:22.842Z,210
2017-05-25T08:00:23.451Z,210
2017-05-25T08:01:23.454Z,205
2017-05-25T08:02:23.754Z,200
2017-05-25T08:03:22.840Z,195
2017-05-25T08:04:23.769Z,190
2017-05-25T08:05:23.454Z,185
2017-05-25T08:06:23.447Z,175
2017-05-25T08:07:23.747Z,180
2017-05-25T08:08:23.456Z,180
2017-05-25T08:09:23.137Z,180
2017-05-25T08:10:23.447Z,165
2017-05-25T08:11:23.137Z,170
2017-05-25T08:12:23.747Z,165
2017-05-25T08:13:23.442Z,150
2017-05-25T08:14:23.751Z,160
2017-05-25T08:15:23.439Z,145
2017-05-25T08:16:23.744Z,155
2017-05-25T08:17:23.439Z,150
2017-05-25T08:18:23.744Z,120
2017-05-25T08:19:23.138Z,120
2017-05-25T08:20:23.121Z,115
2017-05-25T08:21:22.820Z,115
2017-05-25T08:22:23.434Z,120
2017-05-25T08:23:23.734Z,125
2017-05-25T08:24:22.819Z,130
2017-05-25T08:25:22.813Z,145
2017-05-25T08:26:23.732Z,160
2017-05-25T08:27:23.429Z,145
2017-05-25T08:28:23.426Z,145
2017-05-25T08:29:23.791Z,140
2017-05-25T08:30:23.423Z,125
2017-05-25T08:31:23.118Z,115
2017-05-25T08:32:23.432Z,105
2017-05-25T08:33:22.809Z,95
2017-05-25T08:34:23.419Z,85
2017-05-25T08:35:23.119Z,80
2017-05-25T08:36:23.424Z,80
2017-05-25T08:37:23.736Z,80
2017-05-25T08:38:23.422Z,80
2017-05-25T08:39:23.417Z,80
2017-05-25T08:40:23.415Z,75
2017-05-25T08:41:22.799Z,75
2017-05-25T08:42:23.421Z,70
2017-05-25T08:43:23.407Z,65
2017-05-25T08:44:23.410Z,70
2017-05-25T08:45:23.409Z,65
2017-05-25T08:46:23.095Z,65
2017-05-25T08:47:23.711Z,65
2017-05-25T08:48:23.097Z,70
2017-05-25T08:49:23.095Z,70
2017-05-25T08:50:23.399Z,80
2017-05-25T08:51:23.092Z,85
2017-05-25T08:52:23.402Z,90
2017-05-25T08:53:23.090Z,95
2017-05-25T08:54:22.780Z,100
2017-05-25T08:55:22.479Z,105
2017-05-25T08:56:23.695Z,115
2017-05-25T08:57:23.692Z,120
2017-05-25T08:58:23.080Z,120
2017-05-25T08:59:22.782Z,120
2017-05-25T09:00:23.073Z,120
2017-05-25T09:01:23.382Z,120
2017-05-25T09:02:22.765Z,120
2017-05-25T09:03:23.698Z,120
2017-05-25T09:04:23.720Z,125
2017-05-25T09:05:23.680Z,125
2017-05-25T09:06:23.382Z,125
2017-05-25T09:07:22.758Z,120
2017-05-25T09:08:22.758Z,125
2017-05-25T09:09:23.707Z,130
2017-05-25T09:10:23.681Z,140
2017-05-25T09:11:23.674Z,145
2017-05-25T09:12:23.052Z,150
2017-05-25T09:13:23.675Z,160
2017-05-25T09:14:23.365Z,160
2017-05-25T09:15:23.670Z,150
2017-05-25T09:16:23.360Z,145
2017-05-25T09:17:23.668Z,135
2017-05-25T09:18:23.354Z,110
2017-05-25T09:19:23.356Z,100
2017-05-25T09:20:23.659Z,85
2017-05-25T09:21:23.041Z,80
2017-05-25T09:22:23.346Z,75
2017-05-25T09:23:23.357Z,65
2017-05-25T09:24:23.658Z,60
2017-05-25T09:25:23.348Z,60
2017-05-25T09:26:23.033Z,60
2017-05-25T09:27:23.646Z,60
2017-05-25T09:28:23.347Z,55
2017-05-25T09:29:23.031Z,50
2017-05-25T09:30:22.722Z,50
2017-05-25T09:31:23.033Z,50
2017-05-25T09:32:22.726Z,50
2017-05-25T09:33:23.635Z,50
2017-05-25T09:34:22.724Z,50
2017-05-25T09:35:23.018Z,50
2017-05-25T09:36:23.333Z,50
2017-05-25T09:37:23.020Z,50
2017-05-25T09:38:23.017Z,50
2017-05-25T09:39:23.331Z,55
2017-05-25T09:40:23.014Z,60
2017-05-25T09:41:22.704Z,60
2017-05-25T09:42:23.620Z,65
2017-05-25T09:43:23.311Z,70
2017-05-25T09:44:23.621Z,70
2017-05-25T09:45:23.617Z,75
2017-05-25T09:46:23.006Z,75
2017-05-25T09:47:23.614Z,75
2017-05-25T09:48:23.000Z,70
2017-05-25T09:49:23.308Z,65
2017-05-25T09:50:23.305Z,65
2017-05-25T09:51:22.688Z,65
2017-05-25T09:52:23.602Z,65
2017-05-25T09:53:23.607Z,65
2017-05-25T09:54:23.301Z,65
2017-05-25T09:55:23.289Z,65
2017-05-25T09:56:23.291Z,70
2017-05-25T09:57:23.291Z,75
2017-05-25T09:58:22.975Z,75
2017-05-25T09:59:22.984Z,75
2017-05-25T10:00:23.587Z,80
2017-05-25T10:01:23.282Z,85
2017-05-25T10:02:22.973Z,85
2017-05-25T10:03:23.280Z,85
2017-05-25T10:04:22.666Z,85
2017-05-25T10:05:23.269Z,85
2017-05-25T10:06:23.582Z,90
2017-05-25T10:07:22.659Z,95
2017-05-25T10:08:23.579Z,100
2017-05-25T10:09:23.267Z,105
2017-05-25T10:10:22.650Z,110
2017-05-25T10:11:22.955Z,105
2017-05-25T10:12:23.260Z,100
2017-05-25T10:13:23.264Z,95
2017-05-25T10:14:23.276Z,85
2017-05-25T10:15:23.254Z,80
2017-05-25T10:16:22.639Z,75
2017-05-25T10:17:22.639Z,85
2017-05-25T10:18:22.943Z,85
2017-05-25T10:19:23.559Z,85
2017-05-25T10:20:23.244Z,85
2017-05-25T10:21:23.258Z,85
2017-05-25T10:22:22.935Z,85
2017-05-25T10:23:23.240Z,90
2017-05-25T10:24:22.628Z,90
2017-05-25T10:25:23.238Z,90
2017-05-25T10:26:23.232Z,90
2017-05-25T10:27:23.236Z,95
2017-05-25T10:28:23.538Z,95
2017-05-25T10:29:23.230Z,95
2017-05-25T10:30:23.533Z,100
2017-05-25T10:31:23.530Z,100
2017-05-25T10:32:22.917Z,100
2017-05-25T10:33:23.225Z,100
2017-05-25T10:34:23.226Z,95
2017-05-25T10:35:23.212Z,95
2017-05-25T10:36:23.530Z,95
2017-05-25T10:37:23.526Z,90
2017-05-25T10:38:22.600Z,90
2017-05-25T10:39:23.215Z,85
2017-05-25T10:40:23.511Z,90
2017-05-25T10:41:23.206Z,95
2017-05-25T10:42:23.202Z,95
2017-05-25T10:43:23.522Z,90
2017-05-25T10:44:22.900Z,85
2017-05-25T10:45:23.202Z,85
2017-05-25T10:46:22.888Z,80
2017-05-25T10:47:23.201Z,70
2017-05-25T10:48:22.890Z,65
2017-05-25T10:49:22.890Z,65
2017-05-25T10:50:23.185Z,60
2017-05-25T10:51:23.492Z,60
2017-05-25T10:52:23.492Z,60
2017-05-25T10:53:22.576Z,60
2017-05-25T10:54:22.873Z,65
2017-05-25T10:55:22.567Z,65
2017-05-25T10:56:22.572Z,60
2017-05-25T10:57:22.873Z,65
2017-05-25T10:58:23.175Z,70
2017-05-25T10:59:22.867Z,75
2017-05-25T11:00:23.474Z,80
2017-05-25T11:01:23.476Z,80
2017-05-25T11:02:23.469Z,80
2017-05-25T11:03:23.166Z,75
2017-05-25T11:04:22.863Z,70
2017-05-25T11:05:23.462Z,65
2017-05-25T11:06:22.543Z,60
2017-05-25T11:07:22.550Z,60
2017-05-25T11:08:23.459Z,60
2017-05-25T11:09:23.461Z,55
2017-05-25T11:10:23.456Z,60
2017-05-25T11:11:23.454Z,65
2017-05-25T11:12:23.146Z,65
2017-05-25T11:13:23.453Z,65
2017-05-25T11:14:23.143Z,60
2017-05-25T11:15:23.138Z,55
2017-05-25T11:16:23.644Z,50
2017-05-25T11:17:23.441Z,45
2017-05-25T11:18:23.438Z,45
2017-05-25T11:19:23.136Z,50
2017-05-25T11:20:23.433Z,45
2017-05-25T11:21:23.438Z,45
2017-05-25T11:22:22.515Z,45
2017-05-25T11:23:23.436Z,45
2017-05-25T11:24:23.127Z,45
2017-05-25T11:25:23.120Z,45
2017-05-25T11:26:23.120Z,50
2017-05-25T11:27:23.457Z,50
2017-05-25T11:28:23.118Z,55
2017-05-25T11:29:23.111Z,60
2017-05-25T11:30:23.564Z,65
2017-05-25T11:31:22.801Z,70
2017-05-25T11:32:23.466Z,75
2017-05-25T11:33:23.104Z,75
2017-05-25T11:34:23.412Z,80
2017-05-25T11:35:23.404Z,75
2017-05-25T11:36:23.102Z,75
2017-05-25T11:37:23.404Z,70
2017-05-25T11:38:22.792Z,65
2017-05-25T11:39:23.409Z,65
2017-05-25T11:40:23.401Z,65
2017-05-25T11:41:23.400Z,65
2017-05-25T11:42:22.781Z,65
2017-05-25T11:43:22.779Z,65
2017-05-25T11:44:22.778Z,70
2017-05-25T11:45:22.779Z,80
2017-05-25T11:46:22.778Z,80
2017-05-25T11:47:23.080Z,85
2017-05-25T11:48:23.392Z,80
2017-05-25T11:49:23.385Z,85
2017-05-25T11:50:23.074Z,90
2017-05-25T11:51:22.773Z,90
2017-05-25T11:52:23.071Z,95
2017-05-25T11:53:23.429Z,95
2017-05-25T11:54:22.762Z,90
2017-05-25T11:55:23.060Z,85
2017-05-25T11:56:23.368Z,75
2017-05-25T11:57:23.057Z,65
2017-05-25T11:58:22.752Z,65
2017-05-25T11:59:22.747Z,65
2017-05-25T12:00:23.052Z,55
2017-05-25T12:01:23.355Z,60
2017-05-25T12:02:23.355Z,55
2017-05-25T12:03:23.350Z,50
2017-05-25T12:04:22.743Z,50
2017-05-25T12:05:22.735Z,55
2017-05-25T12:06:22.428Z,55
2017-05-25T12:07:23.341Z,50
2017-05-25T12:08:22.729Z,55
2017-05-25T12:09:23.033Z,55
2017-05-25T12:10:23.345Z,55
2017-05-25T12:11:23.331Z,60
2017-05-25T12:12:23.029Z,70
2017-05-25T12:13:22.720Z,70
2017-05-25T12:14:23.340Z,75
2017-05-25T12:15:22.713Z,75
2017-05-25T12:16:23.323Z,80
2017-05-25T12:17:22.709Z,85
2017-05-25T12:18:23.340Z,85
2017-05-25T12:19:22.710Z,85
2017-05-25T12:20:22.399Z,85
2017-05-25T12:21:22.701Z,80
2017-05-25T12:22:23.312Z,75
2017-05-25T12:23:22.388Z,70
2017-05-25T12:24:23.313Z,70
2017-05-25T12:25:22.697Z,60
2017-05-25T12:26:23.001Z,60
2017-05-25T12:27:22.697Z,65
2017-05-25T12:28:23.039Z,55
2017-05-25T12:29:23.306Z,50
2017-05-25T12:30:22.992Z,50
2017-05-25T12:31:23.303Z,45
2017-05-25T12:32:22.987Z,45
2017-05-25T12:33:22.375Z,50
2017-05-25T12:34:23.298Z,50
2017-05-25T12:35:22.678Z,50
2017-05-25T12:36:22.978Z,50
2017-05-25T12:37:22.365Z,55
2017-05-25T12:38:23.284Z,50
2017-05-25T12:39:22.362Z,50
2017-05-25T12:40:22.666Z,45
2017-05-25T12:41:22.694Z,50
2017-05-25T12:42:22.642Z,50
2017-05-25T12:43:22.968Z,50
2017-05-25T12:44:23.272Z,50
2017-05-25T12:45:22.654Z,50
2017-05-25T12:46:22.651Z,55
2017-05-25T12:47:22.344Z,55
2017-05-25T12:48:22.654Z,60
2017-05-25T12:49:22.649Z,60
2017-05-25T12:50:22.340Z,65
2017-05-25T12:51:22.643Z,65
2017-05-25T12:52:22.656Z,70
2017-05-25T12:53:22.946Z,75
2017-05-25T12:54:23.251Z,75
2017-05-25T12:55:22.328Z,80
2017-05-25T12:56:22.940Z,80
2017-05-25T12:57:22.937Z,85
2017-05-25T12:58:22.321Z,85
2017-05-25T12:59:22.647Z,80
2017-05-25T13:00:23.230Z,75
2017-05-25T13:01:22.624Z,65
2017-05-25T13:02:23.232Z,55
2017-05-25T13:03:22.930Z,55
2017-05-25T13:04:22.619Z,55
2017-05-25T13:05:22.921Z,55
2017-05-25T13:06:23.226Z,60
2017-05-25T13:07:22.917Z,60
2017-05-25T13:08:22.915Z,60
2017-05-25T13:09:22.916Z,55
2017-05-25T13:10:23.215Z,55
2017-05-25T13:11:22.910Z,55
2017-05-25T13:12:23.213Z,55
2017-05-25T13:13:22.911Z,60
2017-05-25T13:14:22.906Z,55
2017-05-25T13:15:22.902Z,55
2017-05-25T13:16:22.598Z,60
2017-05-25T13:17:23.204Z,65
2017-05-25T13:18:22.897Z,70
2017-05-25T13:19:22.891Z,75
2017-05-25T13:20:22.895Z,80
2017-05-25T13:21:22.891Z,75
2017-05-25T13:22:22.336Z,75
2017-05-25T13:23:22.580Z,75
2017-05-25T13:24:22.578Z,75
2017-05-25T13:25:23.195Z,75
2017-05-25T13:26:22.574Z,75
2017-05-25T13:27:23.185Z,70
2017-05-25T13:28:22.879Z,75
2017-05-25T13:29:22.575Z,70
2017-05-25T13:30:22.563Z,75
2017-05-25T13:31:22.560Z,80
2017-05-25T13:32:23.181Z,80
2017-05-25T13:33:23.188Z,80
2017-05-25T13:34:22.559Z,75
2017-05-25T13:35:22.861Z,70
2017-05-25T13:36:22.858Z,65
2017-05-25T13:37:23.159Z,60
2017-05-25T13:38:22.853Z,55
2017-05-25T13:39:22.547Z,60
2017-05-25T13:40:23.156Z,55
2017-05-25T13:41:23.155Z,55
2017-05-25T13:42:22.541Z,50
2017-05-25T13:43:22.847Z,55
2017-05-25T13:44:22.853Z,50
2017-05-25T13:45:22.531Z,50
2017-05-25T13:46:23.150Z,45
2017-05-25T13:47:22.835Z,45
2017-05-25T13:48:22.850Z,45
2017-05-25T13:49:22.846Z,45
2017-05-25T13:50:22.836Z,45
2017-05-25T13:51:22.530Z,45
2017-05-25T13:52:22.842Z,50
2017-05-25T13:53:22.833Z,50
2017-05-25T13:54:22.829Z,50
2017-05-25T13:55:22.826Z,50
2017-05-25T13:56:22.207Z,50
2017-05-25T13:57:22.513Z,55
2017-05-25T13:58:22.210Z,55
2017-05-25T13:59:22.515Z,60
2017-05-25T14:00:22.506Z,70
2017-05-25T14:01:23.114Z,70
2017-05-25T14:02:22.501Z,70
2017-05-25T14:03:22.804Z,75
2017-05-25T14:04:23.110Z,75
2017-05-25T14:05:22.803Z,75
2017-05-25T14:06:22.505Z,70
2017-05-25T14:07:22.185Z,65
2017-05-25T14:08:22.797Z,70
2017-05-25T14:09:22.488Z,65
2017-05-25T14:10:22.486Z,55
2017-05-25T14:11:23.096Z,50
2017-05-25T14:12:22.483Z,50
2017-05-25T14:13:22.481Z,50
2017-05-25T14:14:22.792Z,50
2017-05-25T14:15:22.168Z,50
2017-05-25T14:16:22.785Z,50
2017-05-25T14:17:22.471Z,50